Terminal Aerodrome Forecast
Issued by NWS Charleston, WV

Current Version | Previous Version | Graphics & Text | Print | Product List | Glossary On
Versions: 1 2 3 4 5 6 7 8 9 10 11 12 13 14 15 16 17 18 19 20 21 22 23 24 25 26 27 28 29
000
FTUS41 KRLX 131700
TAFCRW
TAF
KCRW 131721Z 1318/1418 30004KT P6SM BKN015 OVC035
     FM132000 32007KT P6SM BKN025
     FM140000 VRB03KT P6SM SCT025
     FM140500 VRB03KT 6SM BR SKC
     FM140700 00000KT 3SM BR FEW001
     FM140900 00000KT 1/2SM FG BKN001
     FM141300 00000KT 1 1/2SM BR BKN002
     FM141400 00000KT 6SM BR SCT002
     FM141500 02003KT P6SM SCT040=

USA.gov is the U.S. government's official web portal to all federal, state and local government web resources and services.